Aérodrome :
LOGIN :

S'inscrire | Disclaimer

   EN    FR    IT 

 










Légende :    VFR   VFR Marginal   IFR   IFR Intensif   IFR Très Intensif
Visi : 
Plafond : 
>= 8 km
>= 3000ft
5 à 8 km
1000 à 3000 ft
1500m à 5 km
500 à 1000 ft
800 à 1500m
200 à 500 ft
< 800m
< 200 ft
Symboles :   Orages  Brouillard  Fortes neiges  Fortes précipitations  Vent > 20 kt
SIGMETs :   Divers  Orages  Givrage  Turbulence  Onde Orograph.  Cendres Volcan.







- Altitude de l'aérodrome : 56 ft
- Code IATA : BZR
- Voir les cartes d'approche


LFMU - Beziers / Vias

DERNIER METAR :
  • 152100Z AUTO VRB02KT 8000 NSC 04/03 Q1029

METARs EXPIRÉS :
  • 152030Z AUTO VRB02KT 9000 NSC 04/04 Q1029
  • 152000Z AUTO 34002KT 9000 NSC 05/03 Q1029
  • 151930Z AUTO 35002KT CAVOK 05/04 Q1029 TEMPO 1200 BR BKN006
  • 151900Z AUTO 36003KT CAVOK 06/05 Q1029 TEMPO 1200 BR BKN006
  • 151830Z AUTO 34002KT CAVOK 06/04 Q1029 TEMPO 1200 BR BKN006

TAF TAF LFMU
Valide du 15 à 15h jusqu'au 16 à 15h UTC


151400Z 1515/1615 12012KT 9999 BKN025
BECMG 1515/1517 VRB02KT
TEMPO 1520/1610 1200 BR BKN006
PROB30
TEMPO 1600/1608 0200 FG VV///
BECMG 1613/1615 16012KT 1200 BR BKN010
ATIS : +33 4 67 90 88 88
Pas de NOTAMs connus pour ce terrain.



MET'MAP, la Météo Aéronautique d'un coup d'oeil ! - Copyright ORBIFLY Décembre 2007 - Disclaimer

ORBIFLY MET'MAP TEAM :

Programmation & Développement : Alexandra Zaïnal
Conception & Développement : Baudouin d'Aumeries
Co-Programmation & Développement : Marc-Olivier Méhu
Soutien technique & logistique : Manuel Goepfert

Contact : metmap@orbifly.com




SOURCES & CREDITS :

   NOAA